createdAt,value
2023-03-08T00:01:25.290Z,8.60
2023-03-08T00:03:55.013Z,7.60
2023-03-08T00:06:24.798Z,10.30
2023-03-08T00:09:00.822Z,8.90
2023-03-08T00:11:30.023Z,9.10
2023-03-08T00:13:58.492Z,9.60
2023-03-08T00:16:26.529Z,8.20
2023-03-08T00:18:54.823Z,7.60
2023-03-08T00:21:22.847Z,8.60
2023-03-08T00:23:54.550Z,9.70
2023-03-08T00:26:23.507Z,8.00
2023-03-08T00:28:52.827Z,6.90
2023-03-08T00:31:21.078Z,10.80
2023-03-08T00:33:54.023Z,7.70
2023-03-08T00:36:22.856Z,7.80
2023-03-08T00:38:51.575Z,8.00
2023-03-08T00:41:19.683Z,8.00
2023-03-08T00:43:47.638Z,7.90
2023-03-08T00:46:16.399Z,12.70
2023-03-08T00:48:45.920Z,10.20
2023-03-08T00:51:16.215Z,10.30
2023-03-08T00:53:44.596Z,12.60
2023-03-08T00:56:13.038Z,9.40
2023-03-08T00:58:42.560Z,10.20
2023-03-08T01:01:17.085Z,10.20
2023-03-08T01:03:47.125Z,8.70
2023-03-08T01:06:16.270Z,10.30
2023-03-08T01:08:45.082Z,11.10
2023-03-08T01:11:24.844Z,9.10
2023-03-08T01:13:54.304Z,10.20
2023-03-08T01:16:28.116Z,8.80
2023-03-08T01:18:57.240Z,8.20
2023-03-08T01:21:27.722Z,10.20
2023-03-08T01:23:56.496Z,10.20
2023-03-08T01:26:26.798Z,8.80
2023-03-08T01:28:58.257Z,10.60
2023-03-08T01:31:30.590Z,9.30
2023-03-08T01:34:00.227Z,11.50
2023-03-08T01:36:28.641Z,8.40
2023-03-08T01:38:56.711Z,8.30
2023-03-08T01:41:31.708Z,11.40
2023-03-08T01:44:00.196Z,9.80
2023-03-08T01:46:32.573Z,10.80
2023-03-08T01:49:17.739Z,11.10
2023-03-08T01:52:19.901Z,13.50
2023-03-08T01:55:03.660Z,8.20
2023-03-08T01:57:44.004Z,10.60
2023-03-08T02:00:14.329Z,9.80
2023-03-08T02:02:49.644Z,10.30
2023-03-08T02:05:19.286Z,10.80
2023-03-08T02:10:18.202Z,13.60
2023-03-08T02:12:47.789Z,9.90
2023-03-08T02:15:20.405Z,7.90
2023-03-08T02:17:51.985Z,10.30
2023-03-08T02:20:31.739Z,10.20
2023-03-08T02:23:20.990Z,7.20
2023-03-08T02:25:55.354Z,8.20
2023-03-08T02:28:25.275Z,12.00
2023-03-08T02:30:55.521Z,9.80
2023-03-08T02:33:24.473Z,8.40
2023-03-08T02:35:52.901Z,10.80
2023-03-08T02:38:22.052Z,11.00
2023-03-08T02:40:53.236Z,7.80
2023-03-08T02:43:21.567Z,9.10
2023-03-08T02:45:50.096Z,9.40
2023-03-08T02:48:18.843Z,9.90
2023-03-08T02:50:47.926Z,9.90
2023-03-08T02:53:15.854Z,11.50
2023-03-08T02:55:45.679Z,9.30
2023-03-08T02:58:14.050Z,11.60
2023-03-08T03:00:42.975Z,10.60
2023-03-08T03:03:11.163Z,14.30
2023-03-08T03:05:43.692Z,11.70
2023-03-08T03:08:13.686Z,14.20
2023-03-08T03:10:42.054Z,13.70
2023-03-08T03:13:10.251Z,9.10
2023-03-08T03:15:40.091Z,12.20
2023-03-08T03:18:08.540Z,11.50
2023-03-08T03:20:36.964Z,13.10
2023-03-08T03:23:06.543Z,11.90
2023-03-08T03:25:43.187Z,12.30
2023-03-08T03:28:13.406Z,13.80
2023-03-08T03:30:42.155Z,14.90
2023-03-08T03:33:11.914Z,11.40
2023-03-08T03:35:40.238Z,14.00
2023-03-08T03:38:08.715Z,11.00
2023-03-08T03:40:37.431Z,16.80
2023-03-08T03:43:05.739Z,23.70
2023-03-08T03:45:33.971Z,32.50
2023-03-08T03:48:02.018Z,133.00
2023-03-08T03:50:30.491Z,36.80
2023-03-08T03:53:02.922Z,57.70
2023-03-08T03:55:30.969Z,109.60
2023-03-08T03:57:59.269Z,52.70
2023-03-08T04:00:27.401Z,27.30
2023-03-08T04:03:18.224Z,19.30
2023-03-08T04:05:46.530Z,14.70
2023-03-08T04:08:14.830Z,16.10
2023-03-08T04:10:43.703Z,15.20
2023-03-08T04:13:12.506Z,16.80
2023-03-08T04:15:41.238Z,13.00
2023-03-08T04:18:10.985Z,16.90
2023-03-08T04:20:41.858Z,14.00
2023-03-08T04:23:09.802Z,13.50
2023-03-08T04:25:40.785Z,17.40
2023-03-08T04:28:09.240Z,17.60
2023-03-08T04:30:37.374Z,18.00
2023-03-08T04:33:06.206Z,13.60
2023-03-08T04:35:40.048Z,19.60
2023-03-08T04:38:08.252Z,16.80
2023-03-08T04:40:59.060Z,21.70
2023-03-08T04:43:34.684Z,28.20
2023-03-08T04:46:04.770Z,29.90
2023-03-08T04:48:33.771Z,20.70
2023-03-08T04:51:04.479Z,20.20
2023-03-08T04:53:33.274Z,18.80
2023-03-08T04:56:02.143Z,19.70
2023-03-08T04:58:31.034Z,20.10
2023-03-08T05:00:59.692Z,20.90
2023-03-08T05:03:28.112Z,20.10
2023-03-08T05:05:56.439Z,17.40
2023-03-08T05:08:25.127Z,21.80
2023-03-08T05:11:03.251Z,24.20
2023-03-08T05:13:35.730Z,28.70
2023-03-08T05:16:06.164Z,24.90
2023-03-08T05:18:34.736Z,28.70
2023-03-08T05:21:10.589Z,24.20
2023-03-08T05:23:39.416Z,23.20
2023-03-08T05:26:09.038Z,18.20
2023-03-08T05:28:37.606Z,24.10
2023-03-08T05:31:09.198Z,22.70
2023-03-08T05:33:38.741Z,18.90
2023-03-08T05:36:08.176Z,15.70
2023-03-08T05:38:36.728Z,18.20
2023-03-08T05:41:12.155Z,17.90
2023-03-08T05:43:40.990Z,21.60
2023-03-08T05:46:16.142Z,19.40
2023-03-08T05:48:45.120Z,20.50
2023-03-08T05:51:16.898Z,17.10
2023-03-08T05:53:45.994Z,16.50
2023-03-08T05:56:20.970Z,23.70
2023-03-08T05:58:56.919Z,18.10
2023-03-08T06:01:28.150Z,25.00
2023-03-08T06:04:00.178Z,20.20
2023-03-08T06:06:30.825Z,26.70
2023-03-08T06:09:00.968Z,26.30
2023-03-08T06:11:31.355Z,22.90
2023-03-08T06:14:00.296Z,22.70
2023-03-08T06:16:30.617Z,20.30
2023-03-08T06:18:59.150Z,23.40
2023-03-08T06:21:27.458Z,22.70
2023-03-08T06:24:00.657Z,19.90
2023-03-08T06:26:29.468Z,21.30
2023-03-08T06:28:57.518Z,22.30
2023-03-08T06:31:28.434Z,23.50
2023-03-08T06:33:57.046Z,22.10
2023-03-08T06:36:27.222Z,16.80
2023-03-08T06:38:55.237Z,15.80
2023-03-08T06:41:23.260Z,18.30
2023-03-08T06:43:53.942Z,22.60
2023-03-08T06:46:23.356Z,20.50
2023-03-08T06:48:51.478Z,16.90
2023-03-08T06:51:20.428Z,14.10
2023-03-08T06:53:48.534Z,14.30
2023-03-08T06:56:19.880Z,17.40
2023-03-08T06:58:47.808Z,16.20
2023-03-08T07:01:16.010Z,20.30
2023-03-08T07:03:45.521Z,15.90
2023-03-08T07:06:13.512Z,14.30
2023-03-08T07:08:42.110Z,20.40
2023-03-08T07:11:10.915Z,15.50
2023-03-08T07:13:39.006Z,19.70
2023-03-08T07:16:12.125Z,19.40
2023-03-08T07:18:41.406Z,15.30
2023-03-08T07:21:10.369Z,20.20
2023-03-08T07:23:38.495Z,18.20
2023-03-08T07:26:08.141Z,19.80
2023-03-08T07:28:36.706Z,14.30
2023-03-08T07:31:05.679Z,14.60
2023-03-08T07:33:34.006Z,14.10
2023-03-08T07:36:02.517Z,15.10
2023-03-08T07:38:30.727Z,13.80
2023-03-08T07:40:58.779Z,15.60
2023-03-08T07:43:26.723Z,24.40
2023-03-08T07:46:06.699Z,18.90
2023-03-08T07:48:34.860Z,18.30
2023-03-08T07:51:09.616Z,16.50
2023-03-08T07:53:38.719Z,16.30
2023-03-08T07:56:06.918Z,13.40
2023-03-08T07:58:34.925Z,15.50
2023-03-08T08:01:11.717Z,14.60
2023-03-08T08:03:39.911Z,20.30
2023-03-08T08:06:09.140Z,15.90
2023-03-08T08:08:36.976Z,18.30
2023-03-08T08:11:15.581Z,19.60
2023-03-08T08:13:44.078Z,25.00
2023-03-08T08:16:12.630Z,22.20
2023-03-08T08:18:40.584Z,21.30
2023-03-08T08:21:14.224Z,21.80
2023-03-08T08:23:42.810Z,18.00
2023-03-08T08:26:16.533Z,18.40
2023-03-08T08:28:46.248Z,21.20
2023-03-08T08:31:17.535Z,22.00
2023-03-08T08:33:45.967Z,19.90
2023-03-08T08:36:19.948Z,18.00
2023-03-08T08:38:48.336Z,30.90
2023-03-08T08:41:18.729Z,19.50
2023-03-08T08:43:47.691Z,18.00
2023-03-08T08:46:17.180Z,17.10
2023-03-08T08:48:45.171Z,18.20
2023-03-08T08:51:14.710Z,17.50
2023-03-08T08:53:44.275Z,17.60
2023-03-08T08:56:26.079Z,21.80
2023-03-08T08:59:01.280Z,18.40
2023-03-08T09:01:34.528Z,21.40
2023-03-08T09:04:02.734Z,18.60
2023-03-08T09:06:31.198Z,29.30
2023-03-08T09:08:59.649Z,15.80
2023-03-08T09:11:28.175Z,21.60
2023-03-08T09:13:56.478Z,24.80
2023-03-08T09:16:27.577Z,21.30
2023-03-08T09:18:57.104Z,18.70
2023-03-08T09:21:26.954Z,16.80
2023-03-08T09:23:56.278Z,22.10
2023-03-08T09:26:24.229Z,23.70
2023-03-08T09:28:52.248Z,20.40
2023-03-08T09:31:20.360Z,19.50
2023-03-08T09:33:52.169Z,21.50
2023-03-08T09:36:21.159Z,17.10
2023-03-08T09:38:50.559Z,17.50
2023-03-08T09:41:33.632Z,22.70
2023-03-08T09:44:32.414Z,21.70
2023-03-08T09:47:17.492Z,19.70
2023-03-08T09:49:49.378Z,24.90
2023-03-08T09:52:25.232Z,21.70
2023-03-08T09:54:53.997Z,20.70
2023-03-08T09:57:32.535Z,22.10
2023-03-08T10:00:07.977Z,24.00
2023-03-08T10:02:58.967Z,16.60
2023-03-08T10:05:38.696Z,19.80
2023-03-08T10:08:13.121Z,20.30
2023-03-08T10:11:05.260Z,20.70
2023-03-08T10:13:44.161Z,18.10
2023-03-08T10:16:29.292Z,18.00
2023-03-08T10:19:25.654Z,21.40
2023-03-08T10:21:57.537Z,18.50
2023-03-08T10:24:46.769Z,23.10
2023-03-08T10:27:29.404Z,18.30
2023-03-08T10:30:00.767Z,16.90
2023-03-08T10:32:29.383Z,19.10
2023-03-08T10:35:04.766Z,19.90
2023-03-08T10:37:33.604Z,17.60
2023-03-08T10:40:06.423Z,18.20
2023-03-08T10:42:35.900Z,36.40
2023-03-08T10:45:22.581Z,19.70
2023-03-08T10:48:02.470Z,29.60
2023-03-08T10:51:00.024Z,34.80
2023-03-08T10:53:31.836Z,22.60
2023-03-08T10:56:01.595Z,23.10
2023-03-08T10:58:36.106Z,22.80
2023-03-08T11:01:22.727Z,19.40
2023-03-08T11:04:05.379Z,23.10
2023-03-08T11:06:37.773Z,18.90
2023-03-08T11:09:22.580Z,19.70
2023-03-08T11:11:50.872Z,20.60
2023-03-08T11:14:19.668Z,21.30
2023-03-08T11:16:58.411Z,17.90
2023-03-08T11:20:09.887Z,18.80
2023-03-08T11:22:37.899Z,18.90
2023-03-08T11:25:08.952Z,18.60
2023-03-08T11:28:12.873Z,19.80
2023-03-08T11:30:56.124Z,16.00
2023-03-08T11:33:33.597Z,17.70
2023-03-08T11:36:41.675Z,19.10
2023-03-08T11:39:34.020Z,16.60
2023-03-08T11:42:12.452Z,18.10
2023-03-08T11:44:52.202Z,20.60
2023-03-08T11:47:53.445Z,19.60
2023-03-08T11:50:21.407Z,19.90
2023-03-08T11:53:06.466Z,14.40
2023-03-08T11:55:37.076Z,16.80
2023-03-08T11:58:12.661Z,19.30
2023-03-08T12:00:44.828Z,22.80
2023-03-08T12:03:19.730Z,17.60
2023-03-08T12:05:52.579Z,18.50
2023-03-08T12:08:28.257Z,19.80
2023-03-08T12:11:02.537Z,14.60
2023-03-08T12:13:35.481Z,19.50
2023-03-08T12:16:25.160Z,26.10
2023-03-08T12:19:20.955Z,29.30
2023-03-08T12:22:12.100Z,15.30
2023-03-08T12:24:52.383Z,19.60
2023-03-08T12:27:44.351Z,22.60
2023-03-08T12:30:18.689Z,19.10
2023-03-08T12:32:48.565Z,19.10
2023-03-08T12:35:22.902Z,21.80
2023-03-08T12:38:20.270Z,21.70
2023-03-08T12:40:55.467Z,17.60
2023-03-08T12:43:23.372Z,26.70
2023-03-08T12:45:57.173Z,19.50
2023-03-08T12:48:31.074Z,33.40
2023-03-08T12:51:02.186Z,44.30
2023-03-08T12:53:32.948Z,33.50
2023-03-08T12:56:09.953Z,32.50
2023-03-08T12:59:02.413Z,28.30
2023-03-08T13:01:34.715Z,20.80
2023-03-08T13:04:39.253Z,21.10
2023-03-08T13:07:24.570Z,16.50
2023-03-08T13:10:14.196Z,15.60
2023-03-08T13:13:21.122Z,22.90
2023-03-08T13:16:06.949Z,21.10
2023-03-08T13:18:43.867Z,20.40
2023-03-08T13:21:25.786Z,21.70
2023-03-08T13:24:11.232Z,19.60
2023-03-08T13:26:49.687Z,18.60
2023-03-08T13:29:20.791Z,23.30
2023-03-08T13:31:50.201Z,19.80
2023-03-08T13:34:26.337Z,22.70
2023-03-08T13:36:54.990Z,30.10
2023-03-08T13:39:26.459Z,23.20
2023-03-08T13:42:06.395Z,19.40
2023-03-08T13:44:34.414Z,19.60
2023-03-08T13:47:21.547Z,23.70
2023-03-08T13:49:52.075Z,18.70
2023-03-08T13:52:29.439Z,21.00
2023-03-08T13:55:01.051Z,20.40
2023-03-08T13:57:31.695Z,24.00
2023-03-08T14:00:04.710Z,31.30
2023-03-08T14:02:32.777Z,23.70
2023-03-08T14:05:00.915Z,24.60
2023-03-08T14:07:32.318Z,25.10
2023-03-08T14:10:00.463Z,26.70
2023-03-08T14:12:32.899Z,21.90
2023-03-08T14:15:05.009Z,22.20
2023-03-08T14:17:36.010Z,95.00
2023-03-08T14:20:21.706Z,69.90
2023-03-08T14:22:53.028Z,81.30
2023-03-08T14:25:29.481Z,60.80
2023-03-08T14:27:58.552Z,43.80
2023-03-08T14:30:30.674Z,42.40
2023-03-08T14:33:16.914Z,36.60
2023-03-08T14:35:54.391Z,73.30
2023-03-08T14:38:32.010Z,31.50
2023-03-08T14:41:06.314Z,25.50
2023-03-08T14:43:34.498Z,31.90
2023-03-08T14:46:05.624Z,19.10
2023-03-08T14:48:38.402Z,33.60
2023-03-08T14:51:26.716Z,101.60
2023-03-08T14:54:38.636Z,57.00
2023-03-08T14:57:19.153Z,42.20
2023-03-08T14:59:47.337Z,44.70
2023-03-08T15:02:17.506Z,143.10
2023-03-08T15:04:46.363Z,165.10
2023-03-08T15:07:24.257Z,130.00
2023-03-08T15:09:52.456Z,131.40
2023-03-08T15:12:20.395Z,71.70
2023-03-08T15:14:48.200Z,41.30
2023-03-08T15:17:16.209Z,31.70
2023-03-08T15:19:44.049Z,53.20
2023-03-08T15:22:14.483Z,65.10
2023-03-08T15:24:42.561Z,31.30
2023-03-08T15:27:16.021Z,23.00
2023-03-08T15:29:43.941Z,30.20
2023-03-08T15:32:11.959Z,26.00
2023-03-08T15:34:40.861Z,28.90
2023-03-08T15:37:14.238Z,22.30
2023-03-08T15:39:42.463Z,21.90
2023-03-08T15:42:10.437Z,23.50
2023-03-08T15:44:38.301Z,28.80
2023-03-08T15:47:06.442Z,21.80
2023-03-08T15:49:34.372Z,24.50
2023-03-08T15:52:02.498Z,20.70
2023-03-08T15:54:31.888Z,22.90
2023-03-08T15:56:59.903Z,17.80
2023-03-08T15:59:28.162Z,24.30
2023-03-08T16:01:56.107Z,24.90
2023-03-08T16:04:24.068Z,27.30
2023-03-08T16:06:51.941Z,19.50
2023-03-08T16:09:19.937Z,24.40
2023-03-08T16:11:48.236Z,18.10
2023-03-08T16:14:17.982Z,15.00
2023-03-08T16:16:46.281Z,20.20
2023-03-08T16:19:14.488Z,30.40
2023-03-08T16:21:42.397Z,21.70
2023-03-08T16:24:11.494Z,11.90
2023-03-08T16:26:39.619Z,19.30
2023-03-08T16:29:08.727Z,22.70
2023-03-08T16:31:36.728Z,20.70
2023-03-08T16:34:05.822Z,20.40
2023-03-08T16:36:33.898Z,27.70
2023-03-08T16:39:02.025Z,20.20
2023-03-08T16:41:30.177Z,18.60
2023-03-08T16:43:59.138Z,21.10
2023-03-08T16:46:29.079Z,16.50
2023-03-08T16:48:57.332Z,29.40
2023-03-08T16:51:28.146Z,17.80
2023-03-08T16:56:27.012Z,13.30
2023-03-08T16:58:58.065Z,14.20
2023-03-08T17:01:26.979Z,20.30
2023-03-08T17:03:56.462Z,16.30
2023-03-08T17:06:27.405Z,22.50
2023-03-08T17:08:56.678Z,16.30
2023-03-08T17:11:27.584Z,20.10
2023-03-08T17:16:28.186Z,19.90
2023-03-08T17:18:58.703Z,18.70
2023-03-08T17:21:28.004Z,19.20
2023-03-08T17:23:56.119Z,33.90
2023-03-08T17:26:24.604Z,32.00
2023-03-08T17:28:54.024Z,23.30
2023-03-08T17:31:23.604Z,29.50
2023-03-08T17:33:52.077Z,25.60
2023-03-08T17:36:20.828Z,28.70
2023-03-08T17:38:52.542Z,28.80
2023-03-08T17:41:21.928Z,30.50
2023-03-08T17:43:51.124Z,36.40
2023-03-08T17:46:25.400Z,32.50
2023-03-08T17:48:55.353Z,25.70
2023-03-08T17:51:29.616Z,23.70
2023-03-08T17:53:58.604Z,18.20
2023-03-08T17:56:31.167Z,19.80
2023-03-08T17:59:01.519Z,20.70
2023-03-08T18:01:31.191Z,36.30
2023-03-08T18:03:59.757Z,27.10
2023-03-08T18:06:29.392Z,15.50
2023-03-08T18:08:58.790Z,19.60
2023-03-08T18:11:27.828Z,20.50
2023-03-08T18:13:56.479Z,17.80
2023-03-08T18:16:26.527Z,17.30
2023-03-08T18:18:59.523Z,16.20
2023-03-08T18:21:30.374Z,15.10
2023-03-08T18:26:26.998Z,13.20
2023-03-08T18:28:55.020Z,9.40
2023-03-08T18:31:26.692Z,14.30
2023-03-08T18:33:55.461Z,10.50
2023-03-08T18:36:24.350Z,12.30
2023-03-08T18:38:52.346Z,10.30
2023-03-08T18:41:27.311Z,15.10
2023-03-08T18:43:56.827Z,11.90
2023-03-08T18:46:30.227Z,15.90
2023-03-08T18:49:12.708Z,13.70
2023-03-08T18:51:43.628Z,9.80
2023-03-08T18:54:17.435Z,21.80
2023-03-08T18:56:45.453Z,8.70
2023-03-08T18:59:14.418Z,11.20
2023-03-08T19:01:44.569Z,9.60
2023-03-08T19:04:12.574Z,10.40
2023-03-08T19:06:41.610Z,14.10
2023-03-08T19:09:14.876Z,10.20
2023-03-08T19:11:43.789Z,9.30
2023-03-08T19:14:13.015Z,8.80
2023-03-08T19:16:41.666Z,14.00
2023-03-08T19:19:12.061Z,8.50
2023-03-08T19:21:43.067Z,14.60
2023-03-08T19:26:47.213Z,11.30
2023-03-08T19:29:21.052Z,10.70
2023-03-08T19:31:49.138Z,9.70
2023-03-08T19:34:18.256Z,16.50
2023-03-08T19:36:47.877Z,10.30
2023-03-08T19:39:27.803Z,12.30
2023-03-08T19:41:58.361Z,12.60
2023-03-08T19:44:27.701Z,15.90
2023-03-08T19:46:56.038Z,15.20
2023-03-08T19:49:29.503Z,8.60
2023-03-08T19:51:59.713Z,10.00
2023-03-08T19:54:29.087Z,12.00
2023-03-08T19:56:58.117Z,12.80
2023-03-08T19:59:26.886Z,10.80
2023-03-08T20:01:56.194Z,9.40
2023-03-08T20:04:24.752Z,8.80
2023-03-08T20:06:52.770Z,11.90
2023-03-08T20:09:22.620Z,12.20
2023-03-08T20:11:58.813Z,12.20
2023-03-08T20:14:31.173Z,13.50
2023-03-08T20:17:01.550Z,8.40
2023-03-08T20:19:31.991Z,11.40
2023-03-08T20:22:01.637Z,7.30
2023-03-08T20:24:29.570Z,8.70
2023-03-08T20:26:59.281Z,9.50
2023-03-08T20:29:27.165Z,7.60
2023-03-08T20:31:58.244Z,16.90
2023-03-08T20:34:27.496Z,11.50
2023-03-08T20:36:55.598Z,9.90
2023-03-08T20:39:23.757Z,10.00
2023-03-08T20:41:51.916Z,12.90
2023-03-08T20:44:19.940Z,9.90
2023-03-08T20:46:48.984Z,8.00
2023-03-08T20:49:16.952Z,10.20
2023-03-08T20:51:45.036Z,8.50
2023-03-08T20:54:12.893Z,10.10
2023-03-08T20:56:40.930Z,12.20
2023-03-08T20:59:09.283Z,10.80
2023-03-08T21:01:37.580Z,9.60
2023-03-08T21:04:06.079Z,7.40
2023-03-08T21:06:34.233Z,8.80
2023-03-08T21:09:02.405Z,8.80
2023-03-08T21:11:30.595Z,11.40
2023-03-08T21:13:58.489Z,8.60
2023-03-08T21:16:28.333Z,10.50
2023-03-08T21:18:58.545Z,6.80
2023-03-08T21:21:34.305Z,7.60
2023-03-08T21:24:07.549Z,8.60
2023-03-08T21:26:35.929Z,5.50
2023-03-08T21:29:06.323Z,8.10
2023-03-08T21:31:42.430Z,7.70
2023-03-08T21:34:12.660Z,8.70
2023-03-08T21:36:44.890Z,11.30
2023-03-08T21:39:13.645Z,6.30
2023-03-08T21:41:44.359Z,11.00
2023-03-08T21:44:16.184Z,8.50
2023-03-08T21:46:44.685Z,8.70
2023-03-08T21:49:18.496Z,7.50
2023-03-08T21:51:46.370Z,7.40
2023-03-08T21:54:15.068Z,10.20
2023-03-08T21:56:43.540Z,6.60
2023-03-08T21:59:12.960Z,6.40
2023-03-08T22:01:41.825Z,7.70
2023-03-08T22:04:09.745Z,8.40
2023-03-08T22:06:37.796Z,6.40
2023-03-08T22:09:06.030Z,8.70
2023-03-08T22:11:33.955Z,7.70
2023-03-08T22:14:03.029Z,7.60
2023-03-08T22:16:31.928Z,9.50
2023-03-08T22:19:02.082Z,8.30
2023-03-08T22:21:30.717Z,7.20
2023-03-08T22:24:01.900Z,7.00
2023-03-08T22:26:31.878Z,7.00
2023-03-08T22:28:59.874Z,6.80
2023-03-08T22:31:29.818Z,7.60
2023-03-08T22:33:58.354Z,11.90
2023-03-08T22:36:26.252Z,13.10
2023-03-08T22:38:54.252Z,10.60
2023-03-08T22:41:24.970Z,12.10
2023-03-08T22:43:53.840Z,6.60
2023-03-08T22:46:25.106Z,8.90
2023-03-08T22:48:54.472Z,6.60
2023-03-08T22:51:23.303Z,11.70
2023-03-08T22:53:51.368Z,10.50
2023-03-08T22:56:26.149Z,8.10
2023-03-08T22:58:54.149Z,7.30
2023-03-08T23:01:23.812Z,7.90
2023-03-08T23:03:57.117Z,7.00
2023-03-08T23:06:29.653Z,10.40
2023-03-08T23:08:59.978Z,7.90
2023-03-08T23:11:29.051Z,9.20
2023-03-08T23:13:56.915Z,6.70
2023-03-08T23:16:24.882Z,13.90
2023-03-08T23:18:54.251Z,10.50
2023-03-08T23:21:24.486Z,8.20
2023-03-08T23:23:52.682Z,8.80
2023-03-08T23:26:24.846Z,11.00
2023-03-08T23:28:54.999Z,11.80
2023-03-08T23:31:26.481Z,10.10
2023-03-08T23:33:55.508Z,9.50
2023-03-08T23:36:25.609Z,11.80
2023-03-08T23:38:54.045Z,9.60
2023-03-08T23:41:22.195Z,9.60
2023-03-08T23:43:53.985Z,9.90
2023-03-08T23:46:22.198Z,8.90
2023-03-08T23:48:50.925Z,11.20
2023-03-08T23:51:21.101Z,8.10
2023-03-08T23:53:51.095Z,10.90
2023-03-08T23:56:26.907Z,6.80
2023-03-08T23:58:56.584Z,8.20
